This is the latest recevied weather packets stored in our database for station/object RUSSARO. If no packets are shown the sender has not sent any weather packets the latest 10 day(s).
| Time | Temp. | Humidity | Pressure | Rain* | Wind** | Luminosity | Snow |
|---|---|---|---|---|---|---|---|
| 1777849633 | 6.11° C | 81% | 1008 hPa | 0 mm | - | - | - |
| 1777848433 | 6.11° C | 79% | 1008 hPa | 0 mm | - | - | - |
| 1777847233 | 6.11° C | 80% | 1008.3 hPa | 0 mm | - | - | - |
| 1777846033 | 6.11° C | 80% | 1008.2 hPa | 0 mm | - | - | - |
| 1777844832 | 6.11° C | 80% | 1008.4 hPa | 0 mm | - | - | - |
| 1777843632 | 5.56° C | 84% | 1008.5 hPa | 0 mm | - | - | - |
| 1777842433 | 5.56° C | 86% | 1008.5 hPa | 0 mm | - | - | - |
| 1777841232 | 5.56° C | 86% | 1008.5 hPa | 0 mm | - | - | - |
| 1777840032 | 6.11° C | 84% | 1008.5 hPa | 0 mm | - | - | - |
| 1777838832 | 6.11° C | 82% | 1008.5 hPa | 0 mm | - | - | - |
| 1777837632 | 6.11° C | 84% | 1008.6 hPa | 0 mm | - | - | - |
| 1777836431 | 6.11° C | 82% | 1008.6 hPa | 0 mm | - | - | - |
| 1777835232 | 6.67° C | 81% | 1008.6 hPa | 0 mm | - | - | - |
| 1777834032 | 6.67° C | 83% | 1008.7 hPa | 0 mm | - | - | - |
| 1777832831 | 6.67° C | 83% | 1008.7 hPa | 0 mm | - | - | - |
| 1777831632 | 7.22° C | 80% | 1008.4 hPa | 0 mm | - | - | - |
| 1777830432 | 7.22° C | 79% | 1008.4 hPa | 0 mm | - | - | - |
| 1777829238 | 7.78° C | 78% | 1008.4 hPa | 0 mm | - | - | - |
| 1777828031 | 7.78° C | 79% | 1008.5 hPa | 0 mm | - | - | - |
| 1777826831 | 7.78° C | 78% | 1008.6 hPa | 0 mm | - | - | - |
| 1777825631 | 8.33° C | 77% | 1008.6 hPa | 0 mm | - | - | - |
| 1777824432 | 8.33° C | 77% | 1008.8 hPa | 0 mm | - | - | - |
| 1777823231 | 8.33° C | 77% | 1008.9 hPa | 0 mm | - | - | - |
| 1777822031 | 8.33° C | 79% | 1009.1 hPa | 0 mm | - | - | - |
| 1777820831 | 8.33° C | 81% | 1009 hPa | 0 mm | - | - | - |
* Rain latest hour (hover to see other rain measurements)
** Current wind speed in m/s (hover to see current wind gust speed)